createdAt,value
2023-02-24T00:01:25.893Z,9.21
2023-02-24T00:04:13.669Z,9.19
2023-02-24T00:06:59.984Z,9.14
2023-02-24T00:09:45.772Z,9.13
2023-02-24T00:12:31.478Z,9.12
2023-02-24T00:15:17.423Z,9.09
2023-02-24T00:18:07.175Z,9.06
2023-02-24T00:20:56.638Z,9.06
2023-02-24T00:23:47.108Z,8.95
2023-02-24T00:26:33.074Z,8.97
2023-02-24T00:29:19.411Z,8.94
2023-02-24T00:32:08.068Z,8.91
2023-02-24T00:34:55.289Z,8.93
2023-02-24T00:37:43.699Z,8.88
2023-02-24T00:40:30.490Z,8.92
2023-02-24T00:43:18.726Z,8.91
2023-02-24T00:46:11.406Z,8.93
2023-02-24T00:48:58.485Z,8.87
2023-02-24T00:51:49.009Z,8.86
2023-02-24T00:54:36.631Z,8.83
2023-02-24T00:57:22.632Z,8.86
2023-02-24T01:00:16.753Z,8.87
2023-02-24T01:03:03.690Z,8.86
2023-02-24T01:05:50.367Z,8.92
2023-02-24T01:08:38.680Z,8.92
2023-02-24T01:11:45.692Z,8.89
2023-02-24T01:14:33.607Z,8.77
2023-02-24T01:17:20.336Z,8.88
2023-02-24T01:20:18.478Z,8.82
2023-02-24T01:23:04.622Z,8.77
2023-02-24T01:25:50.769Z,8.77
2023-02-24T01:28:37.726Z,8.76
2023-02-24T01:31:25.314Z,8.76
2023-02-24T01:34:13.089Z,8.83
2023-02-24T01:36:58.990Z,8.77
2023-02-24T01:39:46.219Z,8.70
2023-02-24T01:42:32.952Z,8.77
2023-02-24T01:45:25.233Z,8.78
2023-02-24T01:48:12.675Z,8.76
2023-02-24T01:50:59.335Z,8.75
2023-02-24T01:53:45.827Z,8.78
2023-02-24T01:56:32.678Z,8.75
2023-02-24T01:59:20.395Z,8.74
2023-02-24T02:02:08.684Z,8.73
2023-02-24T02:04:58.898Z,8.64
2023-02-24T02:07:45.302Z,8.75
2023-02-24T02:10:32.156Z,8.70
2023-02-24T02:13:21.585Z,8.67
2023-02-24T02:16:17.944Z,8.78
2023-02-24T02:19:22.857Z,8.79
2023-02-24T02:22:19.177Z,8.67
2023-02-24T02:25:26.660Z,8.75
2023-02-24T02:28:31.833Z,8.78
2023-02-24T02:31:29.309Z,8.84
2023-02-24T02:34:22.664Z,8.79
2023-02-24T02:37:34.796Z,8.79
2023-02-24T02:40:49.856Z,8.80
2023-02-24T02:43:46.575Z,8.78
2023-02-24T02:46:41.276Z,8.75
2023-02-24T02:49:32.412Z,8.63
2023-02-24T02:52:35.873Z,8.67
2023-02-24T02:55:26.510Z,8.64
2023-02-24T02:58:15.822Z,8.62
2023-02-24T03:01:07.349Z,8.75
2023-02-24T03:03:56.007Z,8.69
2023-02-24T03:06:45.996Z,8.72
2023-02-24T03:09:39.307Z,8.73
2023-02-24T03:12:29.613Z,8.71
2023-02-24T03:15:17.126Z,8.76
2023-02-24T03:18:12.184Z,8.70
2023-02-24T03:21:20.321Z,8.65
2023-02-24T03:24:07.445Z,8.64
2023-02-24T03:27:03.223Z,8.70
2023-02-24T03:30:13.083Z,8.62
2023-02-24T03:33:05.664Z,8.68
2023-02-24T03:35:52.558Z,8.70
2023-02-24T03:38:38.774Z,8.70
2023-02-24T03:41:30.941Z,8.65
2023-02-24T03:44:17.079Z,8.68
2023-02-24T03:47:03.646Z,8.72
2023-02-24T03:49:50.524Z,8.70
2023-02-24T03:53:01.800Z,8.70
2023-02-24T03:56:03.800Z,8.68
2023-02-24T03:59:18.723Z,8.74
2023-02-24T04:02:09.263Z,8.72
2023-02-24T04:05:20.785Z,8.55
2023-02-24T04:08:21.475Z,8.71
2023-02-24T04:11:23.081Z,8.67
2023-02-24T04:14:32.094Z,8.75
2023-02-24T04:17:23.484Z,8.68
2023-02-24T04:20:13.809Z,8.63
2023-02-24T04:23:10.760Z,8.67
2023-02-24T04:25:57.066Z,8.75
2023-02-24T04:28:44.820Z,8.77
2023-02-24T04:31:32.210Z,8.78
2023-02-24T04:34:20.336Z,8.79
2023-02-24T04:37:07.151Z,8.77
2023-02-24T04:39:55.155Z,8.75
2023-02-24T04:42:49.213Z,8.80
2023-02-24T04:45:35.435Z,8.79
2023-02-24T04:48:21.117Z,8.79
2023-02-24T04:51:06.992Z,8.80
2023-02-24T04:53:55.420Z,8.82
2023-02-24T04:56:41.497Z,8.80
2023-02-24T04:59:28.112Z,8.82
2023-02-24T05:02:18.855Z,8.82
2023-02-24T05:05:08.547Z,8.77
2023-02-24T05:08:03.140Z,8.84
2023-02-24T05:10:49.475Z,8.80
2023-02-24T05:13:37.686Z,8.79
2023-02-24T05:16:23.492Z,8.82
2023-02-24T05:19:30.053Z,8.77
2023-02-24T05:22:17.566Z,8.77
2023-02-24T05:25:04.981Z,8.77
2023-02-24T05:27:51.362Z,8.72
2023-02-24T05:30:38.356Z,8.75
2023-02-24T05:33:24.298Z,8.77
2023-02-24T05:36:15.234Z,8.78
2023-02-24T05:39:07.861Z,8.77
2023-02-24T05:41:57.227Z,8.78
2023-02-24T05:44:43.697Z,8.70
2023-02-24T05:47:30.151Z,8.64
2023-02-24T05:50:17.501Z,8.76
2023-02-24T05:53:03.791Z,8.75
2023-02-24T05:55:49.645Z,8.75
2023-02-24T05:58:39.273Z,8.73
2023-02-24T06:01:25.250Z,8.62
2023-02-24T06:04:20.843Z,8.59
2023-02-24T06:07:14.621Z,8.53
2023-02-24T06:10:01.960Z,8.46
2023-02-24T06:12:47.833Z,8.40
2023-02-24T06:15:34.061Z,8.50
2023-02-24T06:18:21.526Z,8.49
2023-02-24T06:21:07.972Z,8.50
2023-02-24T06:23:54.142Z,8.48
2023-02-24T06:26:43.469Z,8.51
2023-02-24T06:29:30.560Z,8.44
2023-02-24T06:32:20.976Z,8.52
2023-02-24T06:35:07.211Z,8.51
2023-02-24T06:37:55.945Z,8.52
2023-02-24T06:40:42.770Z,8.48
2023-02-24T06:43:28.854Z,8.52
2023-02-24T06:46:16.497Z,8.50
2023-02-24T06:49:03.049Z,8.49
2023-02-24T06:51:50.468Z,8.50
2023-02-24T06:54:36.348Z,8.49
2023-02-24T06:57:23.645Z,8.57
2023-02-24T07:00:20.768Z,8.59
2023-02-24T07:03:15.042Z,8.61
2023-02-24T07:06:12.355Z,8.57
2023-02-24T07:08:58.889Z,8.56
2023-02-24T07:11:48.312Z,8.60
2023-02-24T07:14:37.022Z,8.63
2023-02-24T07:17:23.516Z,8.64
2023-02-24T07:20:13.202Z,8.75
2023-02-24T07:22:59.245Z,8.74
2023-02-24T07:25:46.464Z,8.74
2023-02-24T07:28:32.385Z,8.80
2023-02-24T07:31:21.114Z,8.84
2023-02-24T07:34:07.276Z,8.88
2023-02-24T07:36:53.340Z,8.97
2023-02-24T07:39:40.763Z,9.07
2023-02-24T07:42:30.623Z,9.15
2023-02-24T07:45:16.995Z,9.21
2023-02-24T07:48:02.971Z,9.15
2023-02-24T07:50:50.915Z,9.35
2023-02-24T07:53:37.010Z,9.38
2023-02-24T07:56:32.989Z,9.49
2023-02-24T07:59:19.702Z,9.56
2023-02-24T08:02:07.831Z,9.53
2023-02-24T08:04:54.239Z,9.74
2023-02-24T08:07:40.446Z,9.81
2023-02-24T08:10:26.714Z,9.89
2023-02-24T08:13:13.063Z,9.96
2023-02-24T08:15:59.024Z,10.04
2023-02-24T08:18:50.796Z,10.18
2023-02-24T08:21:41.312Z,10.19
2023-02-24T08:24:30.240Z,10.37
2023-02-24T08:27:21.110Z,10.42
2023-02-24T08:30:08.113Z,10.42
2023-02-24T08:32:57.219Z,10.65
2023-02-24T08:35:45.012Z,10.76
2023-02-24T08:38:42.079Z,10.88
2023-02-24T08:41:44.964Z,10.98
2023-02-24T08:44:31.087Z,10.94
2023-02-24T08:47:21.258Z,11.20
2023-02-24T08:50:07.449Z,11.35
2023-02-24T08:52:53.501Z,11.49
2023-02-24T08:55:40.083Z,11.66
2023-02-24T08:58:29.102Z,11.76
2023-02-24T09:01:20.160Z,11.84
2023-02-24T09:04:07.474Z,12.11
2023-02-24T09:07:10.644Z,12.03
2023-02-24T09:09:57.186Z,12.25
2023-02-24T09:12:42.975Z,12.40
2023-02-24T09:15:41.429Z,12.53
2023-02-24T09:18:30.382Z,12.68
2023-02-24T09:21:36.445Z,12.81
2023-02-24T09:24:28.371Z,12.95
2023-02-24T09:27:17.319Z,13.09
2023-02-24T09:30:08.233Z,13.20
2023-02-24T09:33:01.443Z,13.37
2023-02-24T09:35:53.673Z,13.47
2023-02-24T09:38:59.645Z,13.57
2023-02-24T09:42:08.072Z,13.72
2023-02-24T09:45:01.609Z,13.68
2023-02-24T09:47:57.297Z,14.05
2023-02-24T09:51:04.556Z,14.12
2023-02-24T09:53:53.276Z,14.17
2023-02-24T09:56:42.744Z,14.35
2023-02-24T10:00:23.333Z,14.17
2023-02-24T10:03:20.957Z,14.37
2023-02-24T10:06:26.921Z,14.37
2023-02-24T10:09:42.299Z,14.45
2023-02-24T10:12:40.285Z,14.75
2023-02-24T10:15:58.982Z,14.73
2023-02-24T10:19:26.022Z,14.74
2023-02-24T10:22:27.561Z,14.94
2023-02-24T10:25:54.088Z,14.78
2023-02-24T10:28:52.129Z,15.11
2023-02-24T10:31:48.045Z,15.23
2023-02-24T10:34:34.420Z,15.25
2023-02-24T10:37:28.752Z,15.26
2023-02-24T10:40:26.472Z,15.33
2023-02-24T10:43:30.140Z,15.20
2023-02-24T10:46:41.053Z,15.27
2023-02-24T10:49:27.535Z,15.54
2023-02-24T10:52:33.492Z,15.66
2023-02-24T10:55:28.540Z,15.56
2023-02-24T10:58:28.271Z,15.79
2023-02-24T11:01:21.086Z,15.87
2023-02-24T11:04:33.159Z,15.66
2023-02-24T11:07:25.030Z,15.84
2023-02-24T11:10:26.059Z,16.01
2023-02-24T11:13:35.163Z,16.22
2023-02-24T11:16:39.858Z,16.28
2023-02-24T11:19:29.512Z,16.48
2023-02-24T11:22:24.432Z,16.59
2023-02-24T11:25:27.326Z,16.71
2023-02-24T11:28:35.948Z,16.61
2023-02-24T11:31:25.202Z,16.83
2023-02-24T11:34:59.617Z,16.70
2023-02-24T11:37:48.784Z,16.98
2023-02-24T11:40:40.418Z,17.07
2023-02-24T11:43:28.328Z,16.99
2023-02-24T11:46:22.958Z,17.02
2023-02-24T11:49:27.504Z,17.05
2023-02-24T11:52:21.253Z,17.11
2023-02-24T11:55:17.514Z,17.20
2023-02-24T11:58:07.819Z,17.19
2023-02-24T12:01:06.767Z,17.25
2023-02-24T12:04:05.207Z,17.09
2023-02-24T12:07:14.057Z,17.15
2023-02-24T12:10:16.616Z,17.17
2023-02-24T12:13:15.873Z,17.30
2023-02-24T12:16:07.853Z,17.27
2023-02-24T12:19:06.467Z,17.27
2023-02-24T12:21:59.159Z,17.28
2023-02-24T12:24:50.050Z,17.39
2023-02-24T12:27:42.487Z,17.56
2023-02-24T12:30:51.912Z,17.37
2023-02-24T12:33:49.861Z,17.62
2023-02-24T12:36:39.028Z,17.59
2023-02-24T12:39:42.167Z,17.66
2023-02-24T12:43:19.047Z,17.61
2023-02-24T12:46:27.264Z,17.63
2023-02-24T12:49:40.418Z,17.44
2023-02-24T12:52:38.238Z,17.57
2023-02-24T12:55:31.617Z,17.64
2023-02-24T12:58:25.846Z,17.52
2023-02-24T13:01:24.852Z,17.59
2023-02-24T13:04:14.327Z,17.60
2023-02-24T13:07:09.962Z,17.52
2023-02-24T13:09:55.699Z,17.59
2023-02-24T13:13:00.433Z,17.54
2023-02-24T13:15:55.146Z,17.36
2023-02-24T13:18:41.046Z,17.71
2023-02-24T13:21:27.103Z,17.76
2023-02-24T13:24:21.749Z,17.79
2023-02-24T13:27:13.533Z,17.88
2023-02-24T13:30:01.783Z,17.97
2023-02-24T13:32:59.719Z,17.92
2023-02-24T13:35:47.657Z,18.06
2023-02-24T13:38:33.290Z,17.99
2023-02-24T13:41:22.443Z,18.05
2023-02-24T13:44:26.280Z,18.05
2023-02-24T13:47:35.618Z,18.14
2023-02-24T13:50:41.257Z,18.13
2023-02-24T13:54:04.791Z,18.30
2023-02-24T13:56:57.588Z,18.50
2023-02-24T14:00:13.010Z,18.51
2023-02-24T14:02:59.420Z,18.54
2023-02-24T14:05:45.641Z,18.57
2023-02-24T14:08:47.858Z,18.57
2023-02-24T14:11:36.275Z,18.64
2023-02-24T14:14:22.389Z,18.66
2023-02-24T14:17:30.140Z,18.56
2023-02-24T14:20:21.136Z,18.62
2023-02-24T14:23:39.734Z,18.41
2023-02-24T14:26:26.437Z,18.54
2023-02-24T14:29:16.842Z,18.43
2023-02-24T14:32:03.290Z,18.48
2023-02-24T14:34:49.702Z,18.42
2023-02-24T14:37:35.999Z,18.33
2023-02-24T14:40:25.424Z,18.28
2023-02-24T14:43:15.123Z,18.08
2023-02-24T14:46:05.924Z,18.02
2023-02-24T14:48:56.434Z,18.05
2023-02-24T14:51:42.390Z,18.07
2023-02-24T14:54:54.929Z,17.84
2023-02-24T14:57:45.655Z,17.83
2023-02-24T15:00:35.329Z,17.86
2023-02-24T15:03:24.494Z,17.79
2023-02-24T15:06:25.331Z,17.62
2023-02-24T15:09:15.957Z,17.57
2023-02-24T15:12:18.816Z,17.53
2023-02-24T15:15:06.283Z,17.25
2023-02-24T15:17:58.262Z,17.40
2023-02-24T15:20:44.413Z,17.34
2023-02-24T15:23:36.192Z,17.25
2023-02-24T15:26:27.242Z,17.08
2023-02-24T15:29:15.657Z,17.19
2023-02-24T15:32:04.268Z,17.05
2023-02-24T15:34:50.367Z,16.82
2023-02-24T15:37:42.012Z,17.02
2023-02-24T15:40:29.518Z,16.83
2023-02-24T15:43:35.026Z,16.85
2023-02-24T15:46:24.788Z,16.83
2023-02-24T15:49:11.285Z,16.86
2023-02-24T15:51:59.836Z,16.84
2023-02-24T15:54:45.694Z,16.79
2023-02-24T15:57:32.594Z,16.73
2023-02-24T16:00:21.544Z,16.59
2023-02-24T16:03:07.876Z,16.63
2023-02-24T16:05:53.620Z,16.64
2023-02-24T16:08:44.717Z,16.22
2023-02-24T16:11:32.480Z,16.27
2023-02-24T16:14:18.612Z,16.02
2023-02-24T16:17:08.981Z,16.27
2023-02-24T16:19:56.917Z,15.90
2023-02-24T16:22:42.980Z,16.08
2023-02-24T16:25:30.626Z,16.00
2023-02-24T16:28:18.795Z,15.94
2023-02-24T16:31:05.134Z,15.83
2023-02-24T16:33:55.200Z,15.59
2023-02-24T16:36:43.090Z,15.55
2023-02-24T16:39:29.727Z,15.57
2023-02-24T16:42:17.612Z,15.43
2023-02-24T16:45:03.883Z,15.66
2023-02-24T16:47:56.278Z,15.18
2023-02-24T16:50:43.625Z,15.35
2023-02-24T16:53:29.487Z,15.38
2023-02-24T16:56:15.763Z,15.30
2023-02-24T16:59:01.697Z,15.28
2023-02-24T17:01:48.069Z,15.20
2023-02-24T17:04:33.981Z,15.22
2023-02-24T17:07:21.370Z,15.14
2023-02-24T17:10:07.981Z,15.26
2023-02-24T17:12:54.164Z,15.26
2023-02-24T17:15:40.149Z,15.29
2023-02-24T17:18:27.245Z,15.25
2023-02-24T17:21:15.190Z,15.25
2023-02-24T17:24:01.334Z,15.23
2023-02-24T17:26:47.218Z,15.17
2023-02-24T17:29:33.141Z,15.18
2023-02-24T17:32:19.492Z,15.12
2023-02-24T17:35:06.090Z,15.11
2023-02-24T17:37:52.084Z,15.02
2023-02-24T17:40:38.379Z,15.00
2023-02-24T17:43:24.277Z,15.00
2023-02-24T17:46:10.192Z,14.90
2023-02-24T17:48:56.338Z,14.95
2023-02-24T17:51:42.337Z,14.82
2023-02-24T17:54:28.174Z,14.91
2023-02-24T17:57:14.187Z,14.81
2023-02-24T18:00:00.055Z,14.74
2023-02-24T18:02:46.111Z,14.78
2023-02-24T18:05:32.441Z,14.59
2023-02-24T18:08:18.134Z,14.68
2023-02-24T18:11:05.343Z,14.57
2023-02-24T18:13:52.744Z,14.59
2023-02-24T18:16:39.548Z,14.55
2023-02-24T18:19:25.634Z,14.26
2023-02-24T18:22:11.957Z,14.43
2023-02-24T18:24:59.237Z,14.39
2023-02-24T18:27:45.246Z,14.31
2023-02-24T18:30:31.256Z,14.30
2023-02-24T18:33:17.006Z,14.26
2023-02-24T18:36:02.849Z,14.17
2023-02-24T18:38:48.647Z,14.20
2023-02-24T18:41:34.980Z,14.09
2023-02-24T18:44:21.363Z,14.04
2023-02-24T18:47:09.848Z,13.97
2023-02-24T18:49:55.801Z,13.99
2023-02-24T18:52:42.052Z,14.01
2023-02-24T18:55:28.207Z,13.97
2023-02-24T18:58:14.549Z,13.96
2023-02-24T19:01:01.119Z,13.92
2023-02-24T19:03:47.943Z,13.98
2023-02-24T19:06:35.193Z,13.93
2023-02-24T19:09:21.954Z,13.91
2023-02-24T19:12:08.287Z,13.89
2023-02-24T19:14:54.146Z,13.89
2023-02-24T19:17:40.073Z,13.84
2023-02-24T19:20:25.950Z,13.83
2023-02-24T19:23:11.819Z,13.70
2023-02-24T19:25:57.929Z,13.73
2023-02-24T19:28:44.161Z,13.63
2023-02-24T19:31:32.587Z,13.63
2023-02-24T19:34:18.775Z,13.61
2023-02-24T19:37:04.588Z,13.55
2023-02-24T19:39:51.033Z,13.55
2023-02-24T19:42:37.193Z,13.55
2023-02-24T19:45:23.199Z,13.52
2023-02-24T19:48:10.338Z,13.51
2023-02-24T19:50:56.490Z,13.38
2023-02-24T19:53:42.334Z,13.39
2023-02-24T19:56:30.477Z,13.41
2023-02-24T19:59:17.966Z,13.36
2023-02-24T20:02:04.172Z,13.33
2023-02-24T20:04:50.917Z,13.36
2023-02-24T20:07:37.422Z,13.31
2023-02-24T20:10:23.283Z,13.28
2023-02-24T20:13:09.287Z,13.27
2023-02-24T20:16:10.042Z,13.22
2023-02-24T20:18:56.170Z,13.25
2023-02-24T20:21:42.645Z,13.22
2023-02-24T20:24:28.285Z,13.17
2023-02-24T20:27:14.357Z,13.07
2023-02-24T20:30:00.936Z,13.08
2023-02-24T20:32:46.877Z,13.09
2023-02-24T20:35:32.765Z,13.07
2023-02-24T20:38:18.660Z,13.07
2023-02-24T20:41:05.834Z,13.03
2023-02-24T20:43:52.198Z,13.00
2023-02-24T20:46:38.400Z,12.95
2023-02-24T20:49:24.643Z,12.98
2023-02-24T20:52:10.869Z,12.93
2023-02-24T20:54:56.632Z,12.91
2023-02-24T20:57:42.437Z,12.92
2023-02-24T21:00:28.333Z,12.90
2023-02-24T21:03:14.225Z,12.91
2023-02-24T21:06:09.393Z,12.88
2023-02-24T21:08:57.466Z,12.82
2023-02-24T21:11:43.676Z,12.75
2023-02-24T21:14:29.656Z,12.83
2023-02-24T21:17:15.934Z,12.79
2023-02-24T21:20:02.154Z,12.76
2023-02-24T21:22:48.212Z,12.78
2023-02-24T21:25:34.240Z,12.72
2023-02-24T21:28:23.487Z,12.65
2023-02-24T21:31:11.347Z,12.66
2023-02-24T21:33:57.226Z,12.66
2023-02-24T21:36:43.406Z,12.62
2023-02-24T21:39:29.356Z,12.64
2023-02-24T21:42:15.518Z,12.64
2023-02-24T21:45:02.568Z,12.61
2023-02-24T21:47:48.933Z,12.56
2023-02-24T21:50:35.630Z,12.61
2023-02-24T21:53:23.660Z,12.58
2023-02-24T21:56:16.526Z,12.62
2023-02-24T21:59:04.476Z,12.42
2023-02-24T22:01:50.305Z,12.52
2023-02-24T22:04:36.207Z,12.50
2023-02-24T22:07:22.088Z,12.52
2023-02-24T22:10:08.513Z,12.46
2023-02-24T22:12:56.228Z,12.47
2023-02-24T22:15:42.351Z,12.37
2023-02-24T22:18:29.214Z,12.29
2023-02-24T22:21:19.825Z,12.46
2023-02-24T22:24:06.247Z,12.42
2023-02-24T22:26:52.346Z,12.43
2023-02-24T22:29:38.572Z,12.36
2023-02-24T22:32:24.936Z,12.32
2023-02-24T22:35:10.931Z,12.39
2023-02-24T22:37:56.763Z,12.26
2023-02-24T22:40:43.033Z,12.30
2023-02-24T22:43:29.522Z,12.24
2023-02-24T22:46:22.407Z,12.21
2023-02-24T22:49:08.658Z,12.21
2023-02-24T22:51:54.492Z,12.19
2023-02-24T22:54:40.434Z,12.23
2023-02-24T22:57:27.257Z,12.14
2023-02-24T23:00:20.260Z,12.19
2023-02-24T23:03:06.390Z,11.87
2023-02-24T23:06:03.963Z,12.12
2023-02-24T23:08:50.779Z,12.08
2023-02-24T23:11:41.350Z,12.15
2023-02-24T23:14:27.550Z,12.11
2023-02-24T23:17:13.473Z,12.12
2023-02-24T23:20:02.017Z,12.11
2023-02-24T23:22:53.124Z,12.09
2023-02-24T23:25:39.112Z,12.09
2023-02-24T23:28:26.240Z,12.08
2023-02-24T23:31:18.888Z,12.09
2023-02-24T23:34:07.133Z,12.07
2023-02-24T23:36:53.463Z,12.07
2023-02-24T23:39:39.292Z,12.05
2023-02-24T23:42:25.183Z,12.03
2023-02-24T23:45:11.396Z,12.07
2023-02-24T23:47:57.740Z,12.02
2023-02-24T23:50:43.712Z,12.03
2023-02-24T23:53:30.035Z,12.00
2023-02-24T23:56:22.634Z,12.00
2023-02-24T23:59:09.003Z,12.03
